createdAt,value
2022-08-17T00:00:43.835Z,15.90
2022-08-17T00:03:13.587Z,15.60
2022-08-17T00:05:43.847Z,15.40
2022-08-17T00:08:14.940Z,13.90
2022-08-17T00:10:45.239Z,14.50
2022-08-17T00:13:41.305Z,14.10
2022-08-17T00:16:18.308Z,14.40
2022-08-17T00:19:06.219Z,14.20
2022-08-17T00:22:31.670Z,14.40
2022-08-17T00:24:27.830Z,14.90
2022-08-17T00:26:55.587Z,15.80
2022-08-17T00:29:23.541Z,14.70
2022-08-17T00:31:51.809Z,14.80
2022-08-17T00:34:19.999Z,13.80
2022-08-17T00:36:47.842Z,13.90
2022-08-17T00:39:16.351Z,15.00
2022-08-17T00:41:44.405Z,13.90
2022-08-17T00:44:12.399Z,14.10
2022-08-17T00:46:43.209Z,14.40
2022-08-17T00:49:13.464Z,14.60
2022-08-17T00:52:11.731Z,14.70
2022-08-17T00:54:42.618Z,14.50
2022-08-17T00:57:27.477Z,13.60
2022-08-17T01:00:05.314Z,14.00
2022-08-17T01:02:42.559Z,13.80
2022-08-17T01:05:22.370Z,13.70
2022-08-17T01:07:53.430Z,14.30
2022-08-17T01:10:59.305Z,13.50
2022-08-17T01:13:16.778Z,14.20
2022-08-17T01:15:54.160Z,13.90
2022-08-17T01:18:22.163Z,13.00
2022-08-17T01:20:54.048Z,13.70
2022-08-17T01:23:25.075Z,14.30
2022-08-17T01:25:56.873Z,13.70
2022-08-17T01:28:33.374Z,14.60
2022-08-17T01:31:16.376Z,13.50
2022-08-17T01:33:44.675Z,14.60
2022-08-17T01:36:12.533Z,15.10
2022-08-17T01:38:40.581Z,14.90
2022-08-17T01:41:14.138Z,14.40
2022-08-17T01:44:05.094Z,16.10
2022-08-17T01:46:37.326Z,15.00
2022-08-17T01:49:11.271Z,14.10
2022-08-17T01:51:40.166Z,14.40
2022-08-17T01:54:12.875Z,14.20
2022-08-17T01:56:47.166Z,13.40
2022-08-17T01:59:18.864Z,13.60
2022-08-17T02:01:47.567Z,14.60
2022-08-17T02:04:15.751Z,13.90
2022-08-17T02:06:52.532Z,15.00
2022-08-17T02:09:25.526Z,14.70
2022-08-17T02:11:59.521Z,15.20
2022-08-17T02:14:27.384Z,14.70
2022-08-17T02:16:56.235Z,15.60
2022-08-17T02:19:24.310Z,14.20
2022-08-17T02:21:54.224Z,15.40
2022-08-17T02:24:58.877Z,15.40
2022-08-17T02:27:15.794Z,15.00
2022-08-17T02:29:43.743Z,15.10
2022-08-17T02:32:28.032Z,15.70
2022-08-17T02:34:58.183Z,14.90
2022-08-17T02:37:27.907Z,15.00
2022-08-17T02:39:59.751Z,16.40
2022-08-17T02:42:38.404Z,15.20
2022-08-17T02:45:17.273Z,15.90
2022-08-17T02:47:46.393Z,14.70
2022-08-17T02:50:17.509Z,14.70
2022-08-17T02:52:53.237Z,14.80
2022-08-17T02:55:40.250Z,15.70
2022-08-17T02:58:10.670Z,15.00
2022-08-17T03:00:42.965Z,14.80
2022-08-17T03:03:13.839Z,15.40
2022-08-17T03:05:41.947Z,15.10
2022-08-17T03:08:11.765Z,14.90
2022-08-17T03:10:42.515Z,15.20
2022-08-17T03:13:14.466Z,15.40
2022-08-17T03:15:47.228Z,15.40
2022-08-17T03:18:25.636Z,15.90
2022-08-17T03:20:58.536Z,15.60
2022-08-17T03:23:29.605Z,15.80
2022-08-17T03:25:59.137Z,16.40
2022-08-17T03:28:28.397Z,15.60
2022-08-17T03:30:56.150Z,15.00
2022-08-17T03:33:24.002Z,16.10
2022-08-17T03:35:52.218Z,14.50
2022-08-17T03:38:20.012Z,14.60
2022-08-17T03:40:59.123Z,15.40
2022-08-17T03:43:31.434Z,15.50
2022-08-17T03:46:28.979Z,14.50
2022-08-17T03:49:24.325Z,16.10
2022-08-17T03:52:12.626Z,15.90
2022-08-17T03:55:00.753Z,16.40
2022-08-17T03:57:29.327Z,17.80
2022-08-17T03:59:57.405Z,21.80
2022-08-17T04:02:31.766Z,22.70
2022-08-17T04:05:00.148Z,22.50
2022-08-17T04:07:30.808Z,16.60
2022-08-17T04:09:59.881Z,16.80
2022-08-17T04:12:31.769Z,18.80
2022-08-17T04:15:00.005Z,26.00
2022-08-17T04:17:29.457Z,22.70
2022-08-17T04:19:57.745Z,19.10
2022-08-17T04:22:30.333Z,15.90
2022-08-17T04:25:15.965Z,16.50
2022-08-17T04:27:43.829Z,16.80
2022-08-17T04:30:13.471Z,15.20
2022-08-17T04:33:06.156Z,16.70
2022-08-17T04:35:41.984Z,16.50
2022-08-17T04:38:14.846Z,16.60
2022-08-17T04:41:02.344Z,15.90
2022-08-17T04:43:32.781Z,16.80
2022-08-17T04:46:05.381Z,16.40
2022-08-17T04:48:37.735Z,15.70
2022-08-17T04:53:42.737Z,16.80
2022-08-17T04:56:16.624Z,17.00
2022-08-17T04:58:50.845Z,16.40
2022-08-17T05:01:23.160Z,17.00
2022-08-17T05:03:56.343Z,16.70
2022-08-17T05:06:24.578Z,14.90
2022-08-17T05:08:52.631Z,16.70
2022-08-17T05:11:21.735Z,16.90
2022-08-17T05:13:50.448Z,16.60
2022-08-17T05:16:20.994Z,16.20
2022-08-17T05:18:49.622Z,16.60
2022-08-17T05:21:19.006Z,16.60
2022-08-17T05:23:54.941Z,17.20
2022-08-17T05:26:27.335Z,17.10
2022-08-17T05:29:00.361Z,17.60
2022-08-17T05:31:31.160Z,16.40
2022-08-17T05:33:59.157Z,18.10
2022-08-17T05:36:37.920Z,16.80
2022-08-17T05:39:16.076Z,16.60
2022-08-17T05:41:47.569Z,17.50
2022-08-17T05:44:16.457Z,17.40
2022-08-17T05:46:49.978Z,16.90
2022-08-17T05:49:25.972Z,17.10
2022-08-17T05:52:21.851Z,16.90
2022-08-17T05:55:10.715Z,17.20
2022-08-17T05:57:43.596Z,17.30
2022-08-17T06:00:30.534Z,16.90
2022-08-17T06:03:17.866Z,16.70
2022-08-17T06:06:25.193Z,15.00
2022-08-17T06:09:33.015Z,16.80
2022-08-17T06:12:20.046Z,15.70
2022-08-17T06:15:28.495Z,15.50
2022-08-17T06:18:01.276Z,15.70
2022-08-17T06:20:46.297Z,15.30
2022-08-17T06:23:41.221Z,14.60
2022-08-17T06:26:15.055Z,15.00
2022-08-17T06:29:01.538Z,15.10
2022-08-17T06:31:34.995Z,14.50
2022-08-17T06:34:06.670Z,13.80
2022-08-17T06:37:07.955Z,15.00
2022-08-17T06:39:48.979Z,14.00
2022-08-17T06:42:59.887Z,14.20
2022-08-17T06:46:17.056Z,13.80
2022-08-17T06:48:54.492Z,13.50
2022-08-17T06:51:41.077Z,14.10
2022-08-17T06:54:12.037Z,14.70
2022-08-17T06:57:06.745Z,14.40
2022-08-17T06:59:56.213Z,12.80
2022-08-17T07:02:53.106Z,12.50
2022-08-17T07:05:27.648Z,12.60
2022-08-17T07:08:10.615Z,13.10
2022-08-17T07:11:13.150Z,13.30
2022-08-17T07:13:49.190Z,13.90
2022-08-17T07:16:38.923Z,12.90
2022-08-17T07:19:14.028Z,12.20
2022-08-17T07:22:01.904Z,12.10
2022-08-17T07:24:52.056Z,12.00
2022-08-17T07:27:36.071Z,11.90
2022-08-17T07:30:27.456Z,12.70
2022-08-17T07:33:08.641Z,12.10
2022-08-17T07:35:48.311Z,11.40
2022-08-17T07:38:34.370Z,12.00
2022-08-17T07:41:53.105Z,11.10
2022-08-17T07:44:16.718Z,11.40
2022-08-17T07:47:10.455Z,10.40
2022-08-17T07:49:42.306Z,11.00
2022-08-17T07:55:32.808Z,10.60
2022-08-17T07:58:00.790Z,9.80
2022-08-17T08:00:32.786Z,9.80
2022-08-17T08:03:27.370Z,10.30
2022-08-17T08:06:02.245Z,10.00
2022-08-17T08:08:50.681Z,9.30
2022-08-17T08:11:38.367Z,9.10
2022-08-17T08:14:33.794Z,8.90
2022-08-17T08:17:09.340Z,9.20
2022-08-17T08:19:39.394Z,8.70
2022-08-17T08:22:33.742Z,8.70
2022-08-17T08:25:12.003Z,9.20
2022-08-17T08:27:54.163Z,9.00
2022-08-17T08:30:22.712Z,8.20
2022-08-17T08:33:05.786Z,8.10
2022-08-17T08:36:07.587Z,8.20
2022-08-17T08:39:04.167Z,7.90
2022-08-17T08:42:13.627Z,6.50
2022-08-17T08:45:14.105Z,7.10
2022-08-17T08:48:56.855Z,7.40
2022-08-17T08:51:37.934Z,6.70
2022-08-17T08:54:17.882Z,6.40
2022-08-17T08:57:34.294Z,6.70
2022-08-17T09:00:21.031Z,7.30
2022-08-17T09:03:07.525Z,6.10
2022-08-17T09:05:50.200Z,6.40
2022-08-17T09:08:54.932Z,6.30
2022-08-17T09:12:01.901Z,6.00
2022-08-17T09:14:59.619Z,5.90
2022-08-17T09:17:43.256Z,6.40
2022-08-17T09:20:40.692Z,6.30
2022-08-17T09:23:42.329Z,5.80
2022-08-17T09:26:16.412Z,5.90
2022-08-17T09:28:50.785Z,5.10
2022-08-17T09:31:29.949Z,5.40
2022-08-17T09:34:05.018Z,5.00
2022-08-17T09:37:22.843Z,5.00
2022-08-17T09:39:57.569Z,5.50
2022-08-17T09:43:05.100Z,5.30
2022-08-17T09:45:44.191Z,5.10
2022-08-17T09:48:27.685Z,5.40
2022-08-17T09:51:06.551Z,5.50
2022-08-17T09:53:39.402Z,5.40
2022-08-17T09:56:32.028Z,5.00
2022-08-17T09:59:27.683Z,5.00
2022-08-17T10:02:34.064Z,4.80
2022-08-17T10:05:32.915Z,5.30
2022-08-17T10:09:08.376Z,4.70
2022-08-17T10:12:05.705Z,4.80
2022-08-17T10:15:07.652Z,4.70
2022-08-17T10:18:23.593Z,5.00
2022-08-17T10:21:34.342Z,5.00
2022-08-17T10:24:39.517Z,5.20
2022-08-17T10:27:52.665Z,5.30
2022-08-17T10:30:28.304Z,5.50
2022-08-17T10:33:01.480Z,5.20
2022-08-17T10:35:49.608Z,5.20
2022-08-17T10:38:48.538Z,5.90
2022-08-17T10:41:24.218Z,5.30
2022-08-17T10:44:40.392Z,5.10
2022-08-17T10:47:16.808Z,5.30
2022-08-17T10:49:52.231Z,5.30
2022-08-17T10:52:19.945Z,5.00
2022-08-17T10:54:48.553Z,5.20
2022-08-17T10:57:34.424Z,5.00
2022-08-17T11:00:12.990Z,5.20
2022-08-17T11:02:54.352Z,5.10
2022-08-17T11:05:43.821Z,4.90
2022-08-17T11:09:20.226Z,4.90
2022-08-17T11:12:22.194Z,5.20
2022-08-17T11:15:04.715Z,5.30
2022-08-17T11:17:52.204Z,4.10
2022-08-17T11:20:45.756Z,4.40
2022-08-17T11:23:40.825Z,4.60
2022-08-17T11:26:32.125Z,4.90
2022-08-17T11:31:38.891Z,4.60
2022-08-17T11:34:26.588Z,4.40
2022-08-17T11:37:45.478Z,5.20
2022-08-17T11:40:35.668Z,4.50
2022-08-17T11:43:25.640Z,5.00
2022-08-17T11:46:07.685Z,4.40
2022-08-17T11:49:22.614Z,5.10
2022-08-17T11:52:01.141Z,4.80
2022-08-17T11:54:47.662Z,4.80
2022-08-17T11:57:27.774Z,5.30
2022-08-17T12:00:06.001Z,4.70
2022-08-17T12:02:49.135Z,4.40
2022-08-17T12:05:26.761Z,5.40
2022-08-17T12:08:10.916Z,5.00
2022-08-17T12:10:52.405Z,5.00
2022-08-17T12:13:21.959Z,5.30
2022-08-17T12:15:52.902Z,5.50
2022-08-17T12:18:29.773Z,5.20
2022-08-17T12:21:59.569Z,4.90
2022-08-17T12:25:10.879Z,5.00
2022-08-17T12:28:05.135Z,5.20
2022-08-17T12:30:36.111Z,4.40
2022-08-17T12:33:06.738Z,4.80
2022-08-17T12:35:39.066Z,4.70
2022-08-17T12:38:30.416Z,4.60
2022-08-17T12:41:22.038Z,4.50
2022-08-17T12:44:27.590Z,4.60
2022-08-17T12:47:07.899Z,5.00
2022-08-17T12:49:39.543Z,4.30
2022-08-17T12:52:14.908Z,4.80
2022-08-17T12:55:01.993Z,4.40
2022-08-17T12:57:45.692Z,4.00
2022-08-17T13:00:21.118Z,4.10
2022-08-17T13:03:03.429Z,4.20
2022-08-17T13:05:36.329Z,4.90
2022-08-17T13:08:18.572Z,4.60
2022-08-17T13:11:09.427Z,4.40
2022-08-17T13:13:42.704Z,4.50
2022-08-17T13:16:17.338Z,4.20
2022-08-17T13:19:17.638Z,4.10
2022-08-17T13:22:00.466Z,4.30
2022-08-17T13:24:37.798Z,4.70
2022-08-17T13:27:10.551Z,4.30
2022-08-17T13:29:39.004Z,5.10
2022-08-17T13:32:12.917Z,4.50
2022-08-17T13:35:12.867Z,4.80
2022-08-17T13:38:02.681Z,4.50
2022-08-17T13:40:41.791Z,5.60
2022-08-17T13:43:11.138Z,5.00
2022-08-17T13:45:50.451Z,4.90
2022-08-17T13:48:26.823Z,5.40
2022-08-17T13:50:54.518Z,5.00
2022-08-17T13:53:26.706Z,5.00
2022-08-17T13:56:37.746Z,4.90
2022-08-17T13:59:13.722Z,5.30
2022-08-17T14:01:53.169Z,5.30
2022-08-17T14:04:29.487Z,5.40
2022-08-17T14:07:15.710Z,5.40
2022-08-17T14:09:53.348Z,5.10
2022-08-17T14:12:25.173Z,5.90
2022-08-17T14:14:56.317Z,5.10
2022-08-17T14:17:29.166Z,5.50
2022-08-17T14:19:58.863Z,5.20
2022-08-17T14:22:30.786Z,4.90
2022-08-17T14:25:01.737Z,5.20
2022-08-17T14:27:33.702Z,5.20
2022-08-17T14:30:10.487Z,5.20
2022-08-17T14:32:38.498Z,4.80
2022-08-17T14:35:07.101Z,4.90
2022-08-17T14:37:38.519Z,5.20
2022-08-17T14:40:11.263Z,5.80
2022-08-17T14:42:44.519Z,4.70
2022-08-17T14:45:30.459Z,4.70
2022-08-17T14:48:07.865Z,5.00
2022-08-17T14:50:41.862Z,5.10
2022-08-17T14:53:13.113Z,5.60
2022-08-17T14:55:41.114Z,5.60
2022-08-17T14:58:09.320Z,4.70
2022-08-17T15:00:38.689Z,5.60
2022-08-17T15:03:06.423Z,5.50
2022-08-17T15:05:36.685Z,5.00
2022-08-17T15:08:05.883Z,5.60
2022-08-17T15:10:37.342Z,5.20
2022-08-17T15:13:21.651Z,5.50
2022-08-17T15:15:50.173Z,5.40
2022-08-17T15:18:20.768Z,5.30
2022-08-17T15:20:50.773Z,6.00
2022-08-17T15:23:25.336Z,5.40
2022-08-17T15:25:54.616Z,5.50
2022-08-17T15:28:25.653Z,5.70
2022-08-17T15:30:55.639Z,5.50
2022-08-17T15:33:29.536Z,5.50
2022-08-17T15:36:03.967Z,5.40
2022-08-17T15:38:34.212Z,6.00
2022-08-17T15:41:02.087Z,5.60
2022-08-17T15:43:33.913Z,6.30
2022-08-17T15:46:05.796Z,5.40
2022-08-17T15:48:41.883Z,5.40
2022-08-17T15:51:28.136Z,4.80
2022-08-17T15:54:18.647Z,6.00
2022-08-17T15:56:56.705Z,5.80
2022-08-17T15:59:24.581Z,5.40
2022-08-17T16:03:13.445Z,5.50
2022-08-17T16:04:44.231Z,5.20
2022-08-17T16:07:14.725Z,5.90
2022-08-17T16:09:43.983Z,5.70
2022-08-17T16:12:19.341Z,5.50
2022-08-17T16:14:49.350Z,5.40
2022-08-17T16:17:39.072Z,6.30
2022-08-17T16:20:06.429Z,5.10
2022-08-17T16:22:41.508Z,6.10
2022-08-17T16:25:19.027Z,5.20
2022-08-17T16:27:50.468Z,5.50
2022-08-17T16:30:18.384Z,5.50
2022-08-17T16:32:47.339Z,5.70
2022-08-17T16:35:18.771Z,5.20
2022-08-17T16:37:47.661Z,5.70
2022-08-17T16:40:17.085Z,5.40
2022-08-17T16:42:48.446Z,5.10
2022-08-17T16:45:21.626Z,5.50
2022-08-17T16:47:52.451Z,5.70
2022-08-17T16:50:24.102Z,5.50
2022-08-17T16:52:52.256Z,5.90
2022-08-17T16:55:22.679Z,5.80
2022-08-17T16:57:50.993Z,5.30
2022-08-17T17:00:21.039Z,6.00
2022-08-17T17:02:49.726Z,6.10
2022-08-17T17:05:42.434Z,6.30
2022-08-17T17:08:25.858Z,6.30
2022-08-17T17:10:56.595Z,5.00
2022-08-17T17:13:40.728Z,5.30
2022-08-17T17:16:32.163Z,4.70
2022-08-17T17:19:34.186Z,4.60
2022-08-17T17:22:25.578Z,4.60
2022-08-17T17:25:12.674Z,4.80
2022-08-17T17:28:00.273Z,4.90
2022-08-17T17:30:43.133Z,6.40
2022-08-17T17:33:19.247Z,6.70
2022-08-17T17:36:25.857Z,6.30
2022-08-17T17:39:00.523Z,6.40
2022-08-17T17:41:37.690Z,6.70
2022-08-17T17:44:11.840Z,7.50
2022-08-17T17:46:49.476Z,9.90
2022-08-17T17:49:19.199Z,10.30
2022-08-17T17:52:19.393Z,8.50
2022-08-17T17:55:31.579Z,8.50
2022-08-17T17:58:20.280Z,6.60
2022-08-17T18:01:17.640Z,6.50
2022-08-17T18:04:25.604Z,6.60
2022-08-17T18:07:32.657Z,6.40
2022-08-17T18:10:29.431Z,7.30
2022-08-17T18:13:37.822Z,7.50
2022-08-17T18:16:10.927Z,7.80
2022-08-17T18:18:44.630Z,7.80
2022-08-17T18:21:23.624Z,7.70
2022-08-17T18:23:57.301Z,7.60
2022-08-17T18:26:44.741Z,7.90
2022-08-17T18:29:23.922Z,19.50
2022-08-17T18:32:33.699Z,49.90
2022-08-17T18:35:11.032Z,32.50
2022-08-17T18:38:19.834Z,23.60
2022-08-17T18:41:04.694Z,20.70
2022-08-17T18:43:52.835Z,15.20
2022-08-17T18:46:35.320Z,11.20
2022-08-17T18:49:26.384Z,10.70
2022-08-17T18:52:09.473Z,10.00
2022-08-17T18:54:37.829Z,10.00
2022-08-17T18:57:07.750Z,9.80
2022-08-17T18:59:49.836Z,12.60
2022-08-17T19:02:45.673Z,16.10
2022-08-17T19:05:38.228Z,14.80
2022-08-17T19:08:29.569Z,12.00
2022-08-17T19:11:30.997Z,10.90
2022-08-17T19:14:15.316Z,10.70
2022-08-17T19:17:07.782Z,10.60
2022-08-17T19:22:31.121Z,12.10
2022-08-17T19:25:16.183Z,10.90
2022-08-17T19:28:01.339Z,11.10
2022-08-17T19:30:31.349Z,10.70
2022-08-17T19:33:01.615Z,10.40
2022-08-17T19:35:44.687Z,11.10
2022-08-17T19:38:43.518Z,14.70
2022-08-17T19:41:42.925Z,14.70
2022-08-17T19:44:37.939Z,11.10
2022-08-17T19:47:51.034Z,13.90
2022-08-17T19:50:38.623Z,13.90
2022-08-17T19:54:01.700Z,12.00
2022-08-17T19:56:48.033Z,11.70
2022-08-17T19:59:49.577Z,11.70
2022-08-17T20:02:50.828Z,10.60
2022-08-17T20:05:28.776Z,11.30
2022-08-17T20:08:08.117Z,11.20
2022-08-17T20:10:56.286Z,13.40
2022-08-17T20:14:05.178Z,12.90
2022-08-17T20:16:36.835Z,12.80
2022-08-17T20:19:32.266Z,12.00
2022-08-17T20:22:19.284Z,14.70
2022-08-17T20:25:14.571Z,17.20
2022-08-17T20:28:06.653Z,13.80
2022-08-17T20:30:43.166Z,12.80
2022-08-17T20:33:37.101Z,12.70
2022-08-17T20:36:39.309Z,15.60
2022-08-17T20:39:31.641Z,15.10
2022-08-17T20:42:39.989Z,14.50
2022-08-17T20:45:26.563Z,12.90
2022-08-17T20:51:14.510Z,12.90
2022-08-17T20:53:51.597Z,12.30
2022-08-17T20:56:44.389Z,12.00
2022-08-17T20:59:25.915Z,12.00
2022-08-17T21:02:12.439Z,12.60
2022-08-17T21:04:50.766Z,13.30
2022-08-17T21:07:42.771Z,12.70
2022-08-17T21:10:21.435Z,12.30
2022-08-17T21:13:15.341Z,12.90
2022-08-17T21:16:06.455Z,12.30
2022-08-17T21:18:39.700Z,12.70
2022-08-17T21:21:32.120Z,12.70
2022-08-17T21:24:15.297Z,12.70
2022-08-17T21:26:52.262Z,12.60
2022-08-17T21:29:31.211Z,12.80
2022-08-17T21:32:03.850Z,12.90
2022-08-17T21:34:44.467Z,13.10
2022-08-17T21:37:38.476Z,12.50
2022-08-17T21:40:18.728Z,11.70
2022-08-17T21:43:29.512Z,10.30
2022-08-17T21:46:05.644Z,9.80
2022-08-17T21:48:48.265Z,9.90
2022-08-17T21:51:28.675Z,10.70
2022-08-17T21:54:00.288Z,9.90
2022-08-17T21:56:35.528Z,9.50
2022-08-17T21:59:27.532Z,10.80
2022-08-17T22:02:08.857Z,9.70
2022-08-17T22:04:40.066Z,10.50
2022-08-17T22:07:12.122Z,11.10
2022-08-17T22:09:49.204Z,10.50
2022-08-17T22:12:24.165Z,10.20
2022-08-17T22:15:09.865Z,10.20
2022-08-17T22:17:46.305Z,10.20
2022-08-17T22:20:20.481Z,11.00
2022-08-17T22:23:06.565Z,10.50
2022-08-17T22:25:41.870Z,11.10
2022-08-17T22:28:12.221Z,10.90
2022-08-17T22:30:44.027Z,10.70
2022-08-17T22:33:33.515Z,11.10
2022-08-17T22:36:35.145Z,10.80
2022-08-17T22:39:08.835Z,11.00
2022-08-17T22:42:00.905Z,10.80
2022-08-17T22:44:46.983Z,10.50
2022-08-17T22:47:14.812Z,11.50
2022-08-17T22:49:53.314Z,10.70
2022-08-17T22:52:34.562Z,11.50
2022-08-17T22:55:34.232Z,11.10
2022-08-17T22:58:28.368Z,10.70
2022-08-17T23:00:56.368Z,10.90
2022-08-17T23:03:27.268Z,11.90
2022-08-17T23:06:08.209Z,11.80
2022-08-17T23:08:50.259Z,11.70
2022-08-17T23:11:18.047Z,11.80
2022-08-17T23:13:45.965Z,11.20
2022-08-17T23:16:14.948Z,11.80
2022-08-17T23:18:42.675Z,11.90
2022-08-17T23:21:10.444Z,12.20
2022-08-17T23:23:43.660Z,12.10
2022-08-17T23:26:11.783Z,11.50
2022-08-17T23:28:43.717Z,11.80
2022-08-17T23:31:13.118Z,12.20
2022-08-17T23:33:41.859Z,12.90
2022-08-17T23:36:15.223Z,11.70
2022-08-17T23:38:44.846Z,11.80
2022-08-17T23:41:18.832Z,12.90
2022-08-17T23:43:49.558Z,11.50
2022-08-17T23:46:18.609Z,12.50
2022-08-17T23:48:47.703Z,12.80
2022-08-17T23:51:19.281Z,13.60
2022-08-17T23:53:51.783Z,13.00
2022-08-17T23:56:25.945Z,13.00
2022-08-17T23:58:55.603Z,13.50
